Time;durP1;ratioP1;P1;durP2;ratioP2;P2;SDS_P1;SDS_P2;PMS_P1;PMS_P2;Temp;Humidity;BMP_temperature;BMP_pressure;BME280_temperature;BME280_humidity;BME280_pressure;Samples;Min_cycle;Max_cycle;Signal;HPM_P1;HPM_P2
2023/09/14 00:01:05;;;;;;;22.98;10.70;;;;;;;24.12;32.61;100282.20;1814893;79;21327;-79
2023/09/14 00:04:11;;;;;;;18.37;9.15;;;;;;;24.17;32.56;100285.03;1816168;79;21291;-79
2023/09/14 00:07:18;;;;;;;20.68;10.03;;;;;;;24.03;32.78;100279.05;1799781;79;21334;-79
2023/09/14 00:10:24;;;;;;;22.65;10.13;;;;;;;24.16;32.59;100285.59;1775405;81;21319;-79
2023/09/14 00:13:29;;;;;;;18.37;9.93;;;;;;;24.12;32.48;100271.02;1774800;81;21362;-79
2023/09/14 00:16:34;;;;;;;20.68;10.78;;;;;;;24.00;32.31;100275.41;1773882;81;21315;-79
2023/09/14 00:19:40;;;;;;;16.65;10.25;;;;;;;23.97;32.33;100280.95;1774229;81;21358;-79
2023/09/14 00:22:46;;;;;;;19.10;9.60;;;;;;;23.79;32.56;100274.91;1792065;79;21847;-79
2023/09/14 00:25:52;;;;;;;20.57;10.48;;;;;;;23.77;32.66;100274.34;1811083;79;21347;-79
2023/09/14 00:28:57;;;;;;;19.95;10.80;;;;;;;23.70;32.69;100271.19;1809617;79;21335;-79
2023/09/14 00:32:02;;;;;;;18.52;11.30;;;;;;;23.89;32.49;100275.84;1810938;79;21310;-79
2023/09/14 00:35:08;;;;;;;20.70;10.88;;;;;;;23.82;32.59;100278.58;1810877;79;21285;-79
2023/09/14 00:38:14;;;;;;;20.60;10.70;;;;;;;23.75;32.72;100271.80;1789031;79;21373;-78
2023/09/14 00:41:20;;;;;;;27.35;11.10;;;;;;;23.72;32.72;100273.74;1797393;80;21951;-79
2023/09/14 00:44:25;;;;;;;21.10;11.43;;;;;;;23.86;32.60;100264.38;1796376;80;21328;-79
2023/09/14 00:47:32;;;;;;;26.90;10.50;;;;;;;23.93;32.43;100264.44;1797309;80;21291;-79
2023/09/14 00:50:38;;;;;;;21.25;9.68;;;;;;;24.09;32.27;100263.16;1799464;79;21264;-79
2023/09/14 00:53:42;;;;;;;28.30;12.10;;;;;;;24.13;32.27;100254.53;1787886;79;21320;-79
2023/09/14 00:56:48;;;;;;;26.68;11.15;;;;;;;24.12;32.20;100258.45;1795490;80;21300;-79
2023/09/14 00:59:54;;;;;;;24.55;10.63;;;;;;;24.16;32.12;100254.02;1795503;80;21308;-79
2023/09/14 01:03:00;;;;;;;27.65;11.63;;;;;;;24.26;32.03;100258.28;1796801;80;21295;-79
2023/09/14 01:06:07;;;;;;;19.32;10.70;;;;;;;24.09;32.26;100261.23;1796660;80;21863;-79
2023/09/14 01:09:13;;;;;;;22.30;10.60;;;;;;;24.14;32.29;100261.27;1798184;79;21632;-79
2023/09/14 01:12:19;;;;;;;22.80;10.80;;;;;;;24.33;32.09;100247.72;1810166;79;21303;-79
2023/09/14 01:15:34;;;;;;;19.25;10.80;;;;;;;24.31;32.17;100244.34;1808828;79;21307;-79
2023/09/14 01:18:51;;;;;;;17.27;10.55;;;;;;;24.26;32.35;100248.50;1809954;79;21323;-79
2023/09/14 01:22:21;;;;;;;21.90;10.75;;;;;;;24.20;32.39;100250.41;1805001;79;21283;-79
2023/09/14 01:25:47;;;;;;;21.17;10.95;;;;;;;24.15;32.53;100256.52;1791519;80;21292;-78
2023/09/14 01:28:52;;;;;;;20.97;11.20;;;;;;;24.17;32.50;100252.89;1790036;80;22779;-78
2023/09/14 01:31:57;;;;;;;19.00;10.55;;;;;;;24.15;32.51;100245.34;1791450;80;21304;-78
2023/09/14 01:35:04;;;;;;;18.87;9.85;;;;;;;24.14;32.41;100248.70;1791002;80;21287;-78
2023/09/14 01:38:09;;;;;;;19.50;10.78;;;;;;;24.14;32.52;100247.30;1708770;82;21349;-78
2023/09/14 01:41:16;;;;;;;17.05;10.43;;;;;;;24.18;32.51;100249.86;1707986;84;21370;-79
2023/09/14 01:44:25;;;;;;;19.40;10.82;;;;;;;23.84;33.07;100250.66;1710553;84;21345;-78
2023/09/14 01:47:31;;;;;;;19.95;10.93;;;;;;;23.78;33.23;100252.29;1710997;84;21322;-79
2023/09/14 01:50:37;;;;;;;24.55;11.55;;;;;;;23.64;33.26;100249.08;1725894;82;21314;-78
2023/09/14 01:53:42;;;;;;;27.42;11.70;;;;;;;23.53;33.48;100241.69;1740445;80;21328;-79
2023/09/14 01:56:48;;;;;;;23.35;12.73;;;;;;;23.40;33.76;100249.36;1743178;82;21590;-80
2023/09/14 01:59:55;;;;;;;25.60;10.82;;;;;;;23.46;33.68;100247.47;1741738;82;22293;-80
2023/09/14 02:03:04;;;;;;;25.92;11.40;;;;;;;23.39;33.90;100251.03;1741724;82;21307;-79
2023/09/14 02:06:10;;;;;;;28.17;11.40;;;;;;;23.43;34.02;100254.95;1743167;82;21871;-79
2023/09/14 02:09:16;;;;;;;25.05;12.05;;;;;;;23.48;33.86;100253.64;1723046;82;21298;-79
2023/09/14 02:12:24;;;;;;;27.87;10.90;;;;;;;23.44;33.84;100256.11;1721590;83;21310;-80
2023/09/14 02:15:30;;;;;;;29.65;13.00;;;;;;;23.39;34.00;100253.27;1722432;83;22267;-80
2023/09/14 02:18:29;;;;;;;32.53;11.50;;;;;;;23.37;34.18;100256.85;1722953;83;21319;-80
2023/09/14 02:21:20;;;;;;;18.75;11.28;;;;;;;23.36;34.48;100259.92;1723610;82;21331;-80
2023/09/14 02:24:07;;;;;;;24.20;11.93;;;;;;;23.41;34.54;100265.55;1745740;82;21308;-79
2023/09/14 02:26:59;;;;;;;24.05;11.18;;;;;;;23.48;34.55;100263.41;1742974;82;21910;-79
2023/09/14 02:30:06;;;;;;;20.90;11.83;;;;;;;23.56;34.56;100253.15;1742990;82;21252;-79
2023/09/14 02:33:11;;;;;;;17.50;10.70;;;;;;;23.56;34.68;100255.94;1743133;82;21867;-80
2023/09/14 02:36:16;;;;;;;24.15;11.22;;;;;;;23.59;34.73;100246.21;1742377;82;21352;-79
2023/09/14 02:39:22;;;;;;;22.45;11.93;;;;;;;23.60;34.80;100244.54;1745299;82;21334;-79
2023/09/14 02:42:28;;;;;;;27.60;12.13;;;;;;;23.63;34.93;100244.58;1732530;82;21355;-79
2023/09/14 02:45:34;;;;;;;17.27;10.82;;;;;;;23.51;35.19;100246.67;1733055;82;21339;-80
2023/09/14 02:48:39;;;;;;;22.85;11.50;;;;;;;23.66;35.25;100253.28;1733054;82;21300;-80
2023/09/14 02:51:46;;;;;;;28.50;12.35;;;;;;;23.82;34.85;100256.24;1704726;82;21369;-80
2023/09/14 02:54:45;;;;;;;30.55;11.93;;;;;;;23.83;34.80;100257.92;1723753;83;21918;-79
2023/09/14 02:57:51;;;;;;;19.20;10.90;;;;;;;23.95;34.67;100262.23;1724925;83;21992;-79
2023/09/14 03:01:00;;;;;;;27.25;12.20;;;;;;;23.88;34.88;100264.39;1724749;83;21796;-80
2023/09/14 03:04:06;;;;;;;27.00;11.25;;;;;;;23.84;34.99;100272.16;1723332;83;21911;-79
2023/09/14 03:07:11;;;;;;;28.27;11.12;;;;;;;23.78;35.00;100275.47;1723617;83;21938;-79
2023/09/14 03:10:18;;;;;;;30.20;12.65;;;;;;;23.61;35.25;100268.55;1704424;84;21328;-80
2023/09/14 03:13:23;;;;;;;33.10;11.55;;;;;;;23.81;35.08;100279.70;1704575;84;21316;-79
2023/09/14 03:16:28;;;;;;;22.27;11.75;;;;;;;23.68;35.20;100273.42;1704417;84;21886;-80
2023/09/14 03:19:35;;;;;;;20.05;11.45;;;;;;;23.79;35.04;100272.13;1704777;84;21316;-80
2023/09/14 03:22:40;;;;;;;26.45;11.28;;;;;;;23.62;35.23;100267.47;1717867;82;21938;-79
2023/09/14 03:25:45;;;;;;;19.27;10.70;;;;;;;23.72;35.17;100265.37;1703714;84;21312;-79
2023/09/14 03:28:50;;;;;;;24.20;11.48;;;;;;;23.70;35.18;100275.38;1703981;84;21345;-80
2023/09/14 03:31:56;;;;;;;23.98;11.95;;;;;;;23.67;35.22;100273.69;1704107;84;21339;-79
2023/09/14 03:35:02;;;;;;;25.27;10.90;;;;;;;23.84;35.11;100280.55;1704899;84;21352;-79
2023/09/14 03:38:08;;;;;;;26.42;11.43;;;;;;;23.67;35.42;100282.91;1725906;82;22017;-79
2023/09/14 03:41:13;;;;;;;50.40;12.18;;;;;;;23.88;35.17;100285.34;1734086;82;21657;-79
2023/09/14 03:44:18;;;;;;;21.95;11.73;;;;;;;24.00;35.05;100290.77;1734448;82;21304;-79
2023/09/14 03:47:24;;;;;;;21.93;12.18;;;;;;;24.17;34.89;100290.06;1734193;82;21335;-79
2023/09/14 03:50:30;;;;;;;22.20;12.10;;;;;;;24.23;34.75;100293.20;1730645;82;22657;-79
2023/09/14 03:53:36;;;;;;;29.92;11.30;;;;;;;24.28;34.71;100284.55;1754346;81;22213;-79
2023/09/14 03:56:42;;;;;;;23.38;10.90;;;;;;;24.40;34.53;100292.23;1739330;82;21351;-79
2023/09/14 03:59:51;;;;;;;16.55;10.50;;;;;;;24.35;34.75;100299.16;1739315;82;21643;-79
2023/09/14 04:02:59;;;;;;;22.95;11.03;;;;;;;24.43;34.65;100295.90;1739212;82;21371;-78
2023/09/14 04:06:05;;;;;;;24.52;11.30;;;;;;;24.44;34.75;100305.97;1739291;82;21668;-78
2023/09/14 04:09:10;;;;;;;22.67;11.33;;;;;;;24.31;35.13;100306.38;1732741;82;21304;-79
2023/09/14 04:12:17;;;;;;;28.35;11.48;;;;;;;24.55;34.88;100301.28;1734075;82;21867;-78
2023/09/14 04:15:23;;;;;;;21.75;10.68;;;;;;;24.57;35.00;100304.67;1785006;80;21879;-79
2023/09/14 04:18:35;;;;;;;24.80;11.60;;;;;;;24.77;34.79;100296.95;1785060;80;21296;-79
2023/09/14 04:21:43;;;;;;;28.00;11.70;;;;;;;25.06;34.40;100298.79;1780064;79;21700;-79
2023/09/14 04:24:47;;;;;;;19.73;11.48;;;;;;;25.18;34.18;100300.84;1789515;79;21284;-79
2023/09/14 04:27:56;;;;;;;30.90;11.80;;;;;;;25.43;34.00;100291.70;1789184;80;21304;-79
2023/09/14 04:31:08;;;;;;;21.55;11.50;;;;;;;25.66;33.67;100293.16;1790881;80;21291;-78
2023/09/14 04:34:04;;;;;;;25.95;10.60;;;;;;;25.70;33.62;100287.30;1790530;80;21319;-78
2023/09/14 04:37:10;;;;;;;27.35;10.90;;;;;;;25.49;33.99;100282.19;1794157;79;21279;-79
2023/09/14 04:40:17;;;;;;;23.42;10.88;;;;;;;25.37;34.26;100290.00;1800790;79;21359;-79
2023/09/14 04:43:24;;;;;;;21.97;11.03;;;;;;;25.46;34.27;100281.36;1799972;79;21913;-79
2023/09/14 04:46:29;;;;;;;23.12;10.58;;;;;;;25.38;34.34;100284.13;1800933;79;21291;-79
2023/09/14 04:49:34;;;;;;;22.05;11.28;;;;;;;25.38;34.49;100288.32;1778567;79;21605;-78
2023/09/14 04:52:40;;;;;;;27.05;11.63;;;;;;;25.43;34.49;100287.50;1767275;80;21324;-80
2023/09/14 04:55:48;;;;;;;24.45;11.65;;;;;;;25.42;34.54;100297.02;1772640;79;21280;-80
2023/09/14 04:58:54;;;;;;;19.90;10.68;;;;;;;25.42;35.63;100283.02;1778633;79;21847;-80
2023/09/14 05:01:59;;;;;;;21.50;10.65;;;;;;;25.37;35.56;100288.61;1774672;79;21308;-80
2023/09/14 05:05:06;;;;;;;21.23;10.93;;;;;;;25.45;35.17;100283.84;1765452;80;21304;-79
2023/09/14 05:08:11;;;;;;;27.95;11.57;;;;;;;25.49;34.96;100286.38;1779192;79;21331;-80
2023/09/14 05:11:19;;;;;;;24.00;11.35;;;;;;;25.53;34.93;100283.32;1799620;79;21370;-80
2023/09/14 05:14:24;;;;;;;21.45;11.45;;;;;;;25.79;34.62;100288.47;1764302;79;21296;-79
2023/09/14 05:17:30;;;;;;;21.33;11.93;;;;;;;26.03;34.57;100288.77;1787818;79;21866;-80
2023/09/14 05:20:36;;;;;;;23.20;10.93;;;;;;;26.13;34.58;100293.53;1769602;81;21332;-80
2023/09/14 05:23:42;;;;;;;21.48;10.75;;;;;;;26.34;34.61;100300.80;1792396;80;21312;-79
2023/09/14 05:26:43;;;;;;;26.48;11.22;;;;;;;26.67;34.26;100305.00;1784682;79;21400;-80
2023/09/14 05:29:48;;;;;;;20.43;11.65;;;;;;;26.81;34.36;100303.02;1786865;79;21283;-79
2023/09/14 05:32:53;;;;;;;19.87;10.53;;;;;;;26.99;34.33;100309.43;1788020;79;21284;-79
2023/09/14 05:36:01;;;;;;;22.98;12.10;;;;;;;27.20;34.39;100311.09;1791493;79;21292;-79
2023/09/14 05:39:08;;;;;;;23.50;11.65;;;;;;;27.21;34.54;100311.36;1783619;79;21322;-79
2023/09/14 05:42:14;;;;;;;34.67;15.63;;;;;;;27.44;34.68;100311.83;1780730;79;21923;-79
2023/09/14 05:45:20;;;;;;;35.15;17.32;;;;;;;27.54;35.26;100312.34;1784195;79;22378;-79
2023/09/14 05:48:26;;;;;;;40.20;18.00;;;;;;;27.68;35.14;100314.22;1787251;79;21303;-79
2023/09/14 05:51:33;;;;;;;42.90;20.12;;;;;;;27.71;35.30;100306.66;1791615;79;21300;-80
2023/09/14 05:54:40;;;;;;;43.20;18.65;;;;;;;27.90;35.00;100322.81;1791976;79;21299;-80
2023/09/14 05:57:47;;;;;;;35.58;20.10;;;;;;;28.07;34.21;100315.39;1794834;79;21625;-80
2023/09/14 06:00:54;;;;;;;54.95;23.27;;;;;;;28.05;34.25;100309.23;1795118;79;21315;-80
2023/09/14 06:03:59;;;;;;;47.53;21.87;;;;;;;28.02;34.48;100298.00;1784266;79;21303;-80
2023/09/14 06:07:04;;;;;;;44.70;21.55;;;;;;;28.08;34.33;100290.36;1790736;79;21299;-80
2023/09/14 06:10:09;;;;;;;71.10;24.70;;;;;;;28.11;34.51;100286.97;1781015;79;21322;-80
2023/09/14 06:13:17;;;;;;;65.25;27.42;;;;;;;28.33;34.43;100293.55;1789029;79;21283;-80
2023/09/14 06:16:21;;;;;;;64.00;30.75;;;;;;;28.64;34.32;100296.92;1793398;79;21314;-80
2023/09/14 06:19:27;;;;;;;79.82;32.73;;;;;;;29.00;34.54;100288.97;1775751;79;34284;-80
2023/09/14 06:22:35;;;;;;;74.45;30.27;;;;;;;29.05;35.00;100288.91;1737975;81;21294;-80
2023/09/14 06:25:40;;;;;;;68.87;28.00;;;;;;;29.18;34.67;100288.19;1745561;81;21698;-80
2023/09/14 06:28:46;;;;;;;72.53;30.10;;;;;;;29.22;34.14;100291.25;1739121;81;21303;-80
2023/09/14 06:31:51;;;;;;;60.08;26.35;;;;;;;29.27;33.78;100300.47;1736019;81;21352;-80
2023/09/14 06:34:56;;;;;;;68.22;28.47;;;;;;;29.24;33.94;100301.05;1729416;81;22004;-81
2023/09/14 06:38:04;;;;;;;60.20;26.25;;;;;;;29.24;33.75;100297.41;1731801;81;21349;-81
2023/09/14 06:41:09;;;;;;;62.58;26.42;;;;;;;29.44;33.54;100299.11;1735604;81;21933;-79
2023/09/14 06:44:30;;;;;;;61.33;23.77;;;;;;;29.66;33.33;100300.81;1840320;76;22704;-79
2023/09/14 06:47:35;;;;;;;35.65;17.23;;;;;;;29.71;33.37;100306.95;1767606;79;21289;-79
2023/09/14 06:50:40;;;;;;;43.00;18.02;;;;;;;29.82;33.13;100309.03;1774343;79;21282;-79
2023/09/14 06:53:46;;;;;;;44.25;19.10;;;;;;;30.02;32.71;100314.38;1756185;80;21293;-79
2023/09/14 06:56:51;;;;;;;49.42;18.77;;;;;;;30.36;32.46;100323.17;1757369;80;21298;-78
2023/09/14 06:59:56;;;;;;;63.08;26.23;;;;;;;30.53;32.72;100323.42;1790710;78;21279;-79
2023/09/14 07:03:03;;;;;;;68.42;28.98;;;;;;;30.69;32.50;100317.78;1758213;80;21905;-79
2023/09/14 07:06:10;;;;;;;58.55;28.38;;;;;;;30.72;32.18;100324.22;1767463;80;21307;-79
2023/09/14 07:09:16;;;;;;;68.22;29.15;;;;;;;30.63;32.44;100319.03;1756651;80;21366;-79
2023/09/14 07:12:21;;;;;;;59.93;22.62;;;;;;;30.53;33.21;100312.13;1754354;80;21314;-79
2023/09/14 07:15:28;;;;;;;24.32;11.55;;;;;;;30.29;33.31;100311.69;1763483;80;21342;-79
2023/09/14 07:18:35;;;;;;;35.50;12.05;;;;;;;29.83;33.59;100310.16;1761196;80;21930;-80
2023/09/14 07:21:40;;;;;;;32.10;11.25;;;;;;;29.63;34.07;100318.89;1756029;80;21312;-79
2023/09/14 07:24:47;;;;;;;29.80;11.63;;;;;;;29.53;34.90;100312.22;1753065;80;21316;-79
2023/09/14 07:27:53;;;;;;;25.92;10.70;;;;;;;29.44;35.01;100318.83;1756807;80;21355;-79
2023/09/14 07:30:59;;;;;;;30.43;11.33;;;;;;;29.46;34.84;100321.63;1760166;80;21315;-79
2023/09/14 07:34:05;;;;;;;36.23;11.95;;;;;;;29.31;34.96;100325.19;1759953;80;21921;-79
2023/09/14 07:37:10;;;;;;;42.20;11.30;;;;;;;29.47;34.63;100327.53;1751952;80;21979;-78
2023/09/14 07:40:18;;;;;;;35.28;11.08;;;;;;;29.66;34.17;100331.81;1727866;81;21337;-79
2023/09/14 07:43:23;;;;;;;39.83;11.85;;;;;;;29.91;33.80;100324.13;1728487;81;21236;-79
2023/09/14 07:46:29;;;;;;;23.35;10.18;;;;;;;30.04;33.08;100326.19;1708043;82;21343;-79
2023/09/14 07:49:36;;;;;;;23.35;9.55;;;;;;;30.06;33.14;100329.52;1704953;82;21242;-79
2023/09/14 07:52:42;;;;;;;24.30;9.48;;;;;;;30.33;33.20;100327.44;1736411;81;21466;-79
2023/09/14 07:55:52;;;;;;;43.75;11.33;;;;;;;30.66;32.90;100326.02;1709631;82;21363;-79
2023/09/14 07:58:56;;;;;;;25.92;8.93;;;;;;;30.94;32.20;100326.94;1709921;82;21335;-80
2023/09/14 08:02:02;;;;;;;28.30;9.38;;;;;;;31.07;30.91;100326.70;1706042;83;21447;-79
2023/09/14 08:05:08;;;;;;;26.23;8.75;;;;;;;31.17;31.05;100325.08;1700548;82;21342;-79
2023/09/14 08:08:14;;;;;;;22.80;9.73;;;;;;;31.20;30.55;100322.47;1709966;83;21367;-79
2023/09/14 08:11:19;;;;;;;21.85;10.30;;;;;;;31.27;30.39;100317.25;1714813;82;21327;-80
2023/09/14 08:14:25;;;;;;;26.27;10.88;;;;;;;31.19;30.25;100315.70;1701047;82;21344;-79
2023/09/14 08:17:30;;;;;;;29.77;11.28;;;;;;;31.09;30.44;100329.45;1739802;81;22757;-79
2023/09/14 08:20:37;;;;;;;33.05;12.58;;;;;;;31.08;30.92;100323.55;1727658;81;21347;-80
2023/09/14 08:23:43;;;;;;;38.33;14.30;;;;;;;30.95;31.29;100322.96;1701713;82;21273;-79
2023/09/14 08:26:51;;;;;;;49.60;18.48;;;;;;;31.06;30.97;100318.80;1703833;81;21339;-79
2023/09/14 08:29:56;;;;;;;57.38;21.52;;;;;;;31.20;31.07;100318.81;1729027;81;21894;-79
2023/09/14 08:33:05;;;;;;;52.73;22.98;;;;;;;31.36;31.26;100319.35;1731829;81;21316;-80
2023/09/14 08:36:12;;;;;;;66.62;26.15;;;;;;;31.64;31.16;100320.16;1735358;81;21871;-79
2023/09/14 08:39:18;;;;;;;74.70;29.48;;;;;;;31.71;31.43;100320.00;1711356;82;21389;-79
2023/09/14 08:42:25;;;;;;;100.87;40.90;;;;;;;31.95;31.23;100310.44;1725624;82;21322;-79
2023/09/14 08:45:38;;;;;;;112.90;41.40;;;;;;;32.08;30.67;100309.52;1724126;81;21331;-79
2023/09/14 08:48:45;;;;;;;92.85;39.10;;;;;;;32.27;30.74;100298.85;1729601;81;21323;-79
2023/09/14 08:51:53;;;;;;;87.97;35.95;;;;;;;32.49;31.04;100303.70;1717920;82;21529;-79
2023/09/14 08:55:01;;;;;;;80.22;34.70;;;;;;;32.71;30.58;100295.77;1773103;79;22389;-79
2023/09/14 08:58:07;;;;;;;81.65;32.45;;;;;;;32.91;29.66;100297.81;1783267;79;22383;-78
2023/09/14 09:01:13;;;;;;;68.85;26.27;;;;;;;32.70;29.91;100289.86;1784607;79;21279;-78
2023/09/14 09:04:19;;;;;;;59.18;22.67;;;;;;;32.63;30.05;100286.64;1794063;78;21614;-79
2023/09/14 09:07:25;;;;;;;36.00;13.55;;;;;;;32.71;29.97;100282.20;1772633;79;21280;-79
2023/09/14 09:10:36;;;;;;;33.30;10.93;;;;;;;32.76;29.27;100286.30;1770669;79;22585;-79
2023/09/14 09:13:46;;;;;;;24.70;10.35;;;;;;;32.59;28.99;100282.78;1783673;79;21303;-80
2023/09/14 09:16:53;;;;;;;23.32;8.00;;;;;;;32.69;28.50;100281.67;1784199;78;21952;-81
2023/09/14 09:19:59;;;;;;;21.65;8.38;;;;;;;32.72;28.18;100276.78;1792480;78;21315;-79
2023/09/14 09:23:05;;;;;;;22.35;8.88;;;;;;;32.82;27.73;100283.57;1781935;78;21347;-80
2023/09/14 09:26:11;;;;;;;12.60;7.78;;;;;;;32.92;28.12;100279.06;1785490;79;21997;-80
2023/09/14 09:29:24;;;;;;;16.32;8.65;;;;;;;32.81;27.45;100283.33;1778943;79;21318;-79
2023/09/14 09:32:31;;;;;;;17.10;9.13;;;;;;;32.83;28.05;100282.41;1780713;78;21354;-80
2023/09/14 09:35:37;;;;;;;18.92;7.97;;;;;;;32.86;28.34;100273.85;1780417;79;21355;-79
2023/09/14 09:38:45;;;;;;;15.53;8.93;;;;;;;32.99;28.27;100274.36;1777590;78;21302;-79
2023/09/14 09:41:52;;;;;;;16.65;8.65;;;;;;;33.19;28.27;100270.92;1782183;79;21585;-79
2023/09/14 09:44:57;;;;;;;21.65;8.10;;;;;;;33.39;27.54;100254.45;1766528;79;21349;-79
2023/09/14 09:48:02;;;;;;;15.43;7.90;;;;;;;33.53;27.55;100266.52;1759332;78;21342;-79
2023/09/14 09:51:08;;;;;;;14.68;7.85;;;;;;;33.47;27.85;100249.42;1783383;78;21324;-79
2023/09/14 09:54:14;;;;;;;14.28;8.05;;;;;;;33.45;27.75;100261.66;1758237;79;22212;-81
2023/09/14 09:57:20;;;;;;;18.48;8.05;;;;;;;33.60;27.84;100260.38;1782671;79;21320;-80
2023/09/14 10:00:21;;;;;;;16.55;7.50;;;;;;;33.58;27.87;100250.77;1780300;79;21858;-80
2023/09/14 10:03:32;;;;;;;13.83;8.03;;;;;;;33.52;27.77;100253.52;1779502;79;21358;-81
2023/09/14 10:06:40;;;;;;;18.32;8.08;;;;;;;33.63;27.82;100252.61;1748164;79;21895;-80
2023/09/14 10:09:46;;;;;;;21.82;7.65;;;;;;;33.65;27.33;100245.45;1772175;79;21887;-80
2023/09/14 10:12:51;;;;;;;23.10;7.83;;;;;;;33.57;27.39;100243.44;1777660;79;21318;-79
2023/09/14 10:15:59;;;;;;;14.40;6.17;;;;;;;33.60;27.24;100245.61;1775514;79;21835;-80
2023/09/14 10:19:05;;;;;;;17.02;6.58;;;;;;;33.75;26.52;100232.34;1781561;79;22401;-80
2023/09/14 10:22:11;;;;;;;15.70;6.37;;;;;;;33.96;26.01;100230.28;1775938;79;22332;-80
2023/09/14 10:25:21;;;;;;;22.15;7.50;;;;;;;34.07;25.94;100230.20;1783746;79;21267;-80
2023/09/14 10:28:32;;;;;;;20.90;7.05;;;;;;;34.27;25.68;100235.17;1781540;79;21607;-79
2023/09/14 10:31:38;;;;;;;28.27;7.30;;;;;;;34.30;25.38;100230.80;1777442;79;21361;-81
2023/09/14 10:34:46;;;;;;;17.92;6.97;;;;;;;34.18;25.36;100227.25;1776203;79;21195;-80
2023/09/14 10:37:53;;;;;;;15.72;6.95;;;;;;;34.26;24.88;100217.89;1776137;79;21390;-80
2023/09/14 10:41:03;;;;;;;20.70;7.50;;;;;;;34.44;24.46;100220.66;1778858;78;21337;-80
2023/09/14 10:44:10;;;;;;;21.52;8.10;;;;;;;34.35;24.61;100215.04;1772936;78;21342;-80
2023/09/14 10:47:16;;;;;;;23.92;7.47;;;;;;;34.26;24.73;100207.95;1776446;79;21305;-81
2023/09/14 10:50:21;;;;;;;15.48;6.95;;;;;;;34.31;24.52;100202.10;1773658;79;21311;-79
2023/09/14 10:53:29;;;;;;;21.35;7.35;;;;;;;34.34;24.37;100198.56;1777333;79;21283;-79
2023/09/14 10:56:35;;;;;;;18.50;6.42;;;;;;;34.40;24.30;100199.83;1745483;79;21306;-79
2023/09/14 11:00:04;;;;;;;21.52;7.42;;;;;;;34.55;23.80;100201.55;1782405;79;21284;-80
2023/09/14 11:03:14;;;;;;;24.70;6.42;;;;;;;34.38;23.79;100201.56;1773921;79;21297;-80
2023/09/14 11:06:27;;;;;;;15.38;7.00;;;;;;;34.48;23.60;100190.45;1789560;79;21235;-80
2023/09/14 11:09:35;;;;;;;20.75;6.83;;;;;;;34.33;24.14;100186.14;1778430;78;21334;-80
2023/09/14 11:12:43;;;;;;;16.87;5.92;;;;;;;34.37;24.09;100191.98;1734274;81;21320;-80
2023/09/14 11:15:49;;;;;;;16.05;5.78;;;;;;;34.29;23.72;100187.39;1726605;82;21658;-80
2023/09/14 11:18:58;;;;;;;14.23;6.10;;;;;;;34.45;23.27;100193.37;1726345;82;21302;-80
2023/09/14 11:22:11;;;;;;;15.08;5.90;;;;;;;34.54;22.86;100184.27;1724666;82;21318;-80
2023/09/14 11:25:05;;;;;;;8.70;5.28;;;;;;;34.67;22.57;100188.63;1707464;82;21311;-80
2023/09/14 11:28:06;;;;;;;13.00;6.30;;;;;;;34.71;22.09;100189.03;1718965;82;22432;-80
2023/09/14 11:31:12;;;;;;;23.35;5.95;;;;;;;34.57;21.81;100182.15;1718598;82;21329;-79
2023/09/14 11:34:21;;;;;;;20.62;6.75;;;;;;;34.58;22.13;100175.33;1724204;82;21315;-79
2023/09/14 11:37:27;;;;;;;16.25;6.25;;;;;;;34.55;22.75;100176.58;1730243;82;21362;-80
2023/09/14 11:40:39;;;;;;;18.70;6.30;;;;;;;34.52;22.72;100170.16;1733487;82;21331;-79
2023/09/14 11:43:48;;;;;;;17.42;5.95;;;;;;;34.57;22.62;100173.63;1720225;81;21359;-79
2023/09/14 11:46:56;;;;;;;22.17;5.85;;;;;;;34.63;22.51;100167.20;1687946;82;21334;-79
2023/09/14 11:50:05;;;;;;;19.73;4.78;;;;;;;34.55;22.55;100168.89;1713042;81;21362;-79
2023/09/14 11:53:13;;;;;;;12.63;4.62;;;;;;;34.57;22.37;100161.44;1698402;83;21378;-80
2023/09/14 11:56:21;;;;;;;15.25;5.65;;;;;;;34.59;22.46;100160.53;1710658;83;21333;-80
2023/09/14 11:59:38;;;;;;;14.00;5.15;;;;;;;34.54;22.54;100159.30;1731154;81;21299;-80
2023/09/14 12:02:44;;;;;;;10.58;4.72;;;;;;;34.58;22.24;100158.84;1731165;81;21830;-80
2023/09/14 12:05:49;;;;;;;16.37;4.67;;;;;;;34.50;22.07;100152.05;1732461;81;21307;-81
2023/09/14 12:08:57;;;;;;;16.07;5.15;;;;;;;34.47;22.16;100145.62;1732192;82;21208;-80
2023/09/14 12:12:04;;;;;;;12.10;4.35;;;;;;;34.49;22.13;100141.01;1698341;84;21310;-79
2023/09/14 12:15:13;;;;;;;19.05;5.05;;;;;;;34.58;22.17;100141.80;1709932;83;21309;-79
2023/09/14 12:18:21;;;;;;;12.15;4.08;;;;;;;34.60;21.79;100134.38;1689841;84;21290;-79
2023/09/14 12:21:27;;;;;;;9.08;4.08;;;;;;;34.40;21.44;100137.38;1686905;83;21367;-80
2023/09/14 12:24:33;;;;;;;11.10;4.15;;;;;;;34.40;20.84;100135.95;1706567;83;22470;-79
2023/09/14 12:27:38;;;;;;;9.88;4.33;;;;;;;34.36;20.97;100127.27;1735644;82;21363;-79
2023/09/14 12:30:45;;;;;;;21.68;4.42;;;;;;;34.42;20.97;100123.66;1699599;83;21914;-79
2023/09/14 12:33:51;;;;;;;11.43;3.80;;;;;;;34.36;21.45;100122.19;1707868;84;21323;-80
2023/09/14 12:36:58;;;;;;;11.50;3.65;;;;;;;34.49;21.67;100124.83;1734404;82;21887;-80
2023/09/14 12:40:06;;;;;;;9.18;4.15;;;;;;;34.69;21.59;100115.30;1710163;83;21839;-80
2023/09/14 12:43:13;;;;;;;10.03;4.05;;;;;;;34.65;21.65;100111.47;1726688;82;21287;-80
2023/09/14 12:46:23;;;;;;;10.53;4.75;;;;;;;34.74;21.84;100111.66;1681240;84;21938;-80
2023/09/14 12:49:28;;;;;;;12.20;5.90;;;;;;;34.81;21.87;100112.53;1717022;82;21358;-78
2023/09/14 12:52:34;;;;;;;11.38;6.65;;;;;;;34.78;22.18;100106.13;1740591;80;21284;-80
2023/09/14 12:55:46;;;;;;;9.43;5.50;;;;;;;34.95;22.22;100100.91;1779242;80;21266;-80
2023/09/14 12:58:51;;;;;;;9.25;5.22;;;;;;;34.77;22.30;100095.36;1778621;78;21295;-80
2023/09/14 13:01:57;;;;;;;11.35;5.08;;;;;;;35.06;21.94;100093.69;1790736;78;21287;-80
2023/09/14 13:05:04;;;;;;;9.43;5.58;;;;;;;35.43;22.01;100089.59;1824991;78;21973;-80
2023/09/14 13:08:09;;;;;;;13.05;5.50;;;;;;;35.54;21.94;100096.56;1792808;78;21349;-81
2023/09/14 13:11:15;;;;;;;17.42;5.70;;;;;;;35.53;21.68;100092.06;1779019;80;21310;-80
2023/09/14 13:14:24;;;;;;;18.95;5.05;;;;;;;35.56;21.75;100098.45;1779376;80;21909;-80
2023/09/14 13:17:30;;;;;;;7.12;4.90;;;;;;;35.47;21.31;100098.53;1779027;80;21837;-79
2023/09/14 13:20:36;;;;;;;7.28;4.17;;;;;;;35.50;21.25;100096.42;1779019;80;21354;-80
2023/09/14 13:23:42;;;;;;;9.33;2.95;;;;;;;35.54;21.42;100090.88;1750740;80;21849;-80
2023/09/14 13:26:49;;;;;;;9.90;3.50;;;;;;;35.69;21.51;100093.66;1779232;80;21290;-80
2023/09/14 13:29:48;;;;;;;;;;;;;;;35.62;21.44;100097.08;1780949;80;21314;-80
2023/09/14 13:32:58;;;;;;;14.20;2.83;;;;;;;35.70;21.33;100089.03;1780281;80;20293;-79
2023/09/14 13:36:04;;;;;;;14.03;3.62;;;;;;;35.73;21.50;100086.91;1757076;80;21326;-80
2023/09/14 13:39:10;;;;;;;8.75;2.62;;;;;;;35.79;21.54;100089.77;1778423;80;21338;-79
2023/09/14 13:42:17;;;;;;;10.05;2.90;;;;;;;35.63;21.38;100095.06;1778639;80;21318;-79
2023/09/14 13:45:23;;;;;;;8.78;3.87;;;;;;;35.56;21.38;100095.61;1778824;80;21932;-79
2023/09/14 13:48:30;;;;;;;11.55;3.33;;;;;;;35.54;21.22;100093.72;1780483;80;21932;-80
2023/09/14 13:51:37;;;;;;;11.15;3.60;;;;;;;35.46;21.45;100087.52;1778992;79;21713;-80
2023/09/14 13:54:44;;;;;;;11.15;3.77;;;;;;;35.36;21.39;100086.50;1771616;79;21320;-80
2023/09/14 13:57:51;;;;;;;10.58;3.30;;;;;;;35.34;21.39;100086.86;1769437;81;21328;-80
2023/09/14 14:00:57;;;;;;;7.25;3.50;;;;;;;35.18;21.61;100085.22;1767769;81;21946;-79
2023/09/14 14:04:04;;;;;;;13.43;4.00;;;;;;;35.22;21.57;100082.52;1769285;81;21854;-79
2023/09/14 14:07:10;;;;;;;12.60;3.85;;;;;;;35.21;21.64;100085.95;1768901;79;21330;-79
2023/09/14 14:10:16;;;;;;;21.10;5.17;;;;;;;35.16;21.57;100083.33;1766486;81;22149;-80